Austin Straubel International, WI

9:30 PM CST on February 08, 2016 (GMT -0600)
Austin Straubel International | | Change Station
CLOSE
Current Station
Airport
Location: Green Bay,
Elevation: 686 ft
Nearby Weather Stations
Active Advisory: Special Statement Active Notice: Local Storm Report

Elev 686 ft 44.48 °N, 88.14 °W | Updated 2 minutes ago

Light Snow
Light Snow Mist
20 °F
Feels Like 11 °F
N
7
Wind Variable Wind from North

Today
High -- | Low -- °F
--% Chance of Precip.
Yesterday
High -- | Low -- °F
Precip. -- in
Pressure 29.75 in
Visibility 5.0 miles
Clouds Mostly Cloudy 2100 ft
Overcast 4400 ft
Windchill 11 °F
Dew Point 16 °F
Humidity 85%
Rainfall 0.09 in
Snow Depth Not available.
7:02 AM 5:10 PM
New Moon, 0% visible
SPECI KGRB 090328Z 36006KT 5SM -SN BR BKN021 OVC044 M07/M09 A2975 RMK AO2 UPE0256SNB23 P0000 T10671089
Pressure 29.75 in
Visibility 5.0 miles
Clouds Mostly Cloudy 2100 ft
Overcast 4400 ft
Windchill 11 °F
Dew Point 16 °F
Humidity 85%
Rainfall 0.09 in
Snow Depth Not available.
7:02 AM 5:10 PM
New Moon, 0% visible
SPECI KGRB 090328Z 36006KT 5SM -SN BR BKN021 OVC044 M07/M09 A2975 RMK AO2 UPE0256SNB23 P0000 T10671089

10-Day Weather Forecast

Almanac

Astronomy

Feb. 08, 2016 Rise Set
Actual Time
Civil Twilight
Nautical Twilight
Astronomical Twilight
Moon
Length of Visible Light
Length of Day
Tomorrow will be .
, % of the Moon is Illuminated

Today's Extremes

State Highs State Lows

Community

WunderPhotos

Upload Photos

1,891,527 photos uploaded!

WunderBlog® & News

Nearby

Air Quality

  Air Quality AQ Index Pollutant
Not available.

Snow Depth

Station Depth Elevation

Earthquake Activity

City Distance Mag. Time & Date
Minimum magnitude displayed is 2.5.

Coastal Water Temperatures

Place Temperature

Stations

Nearby Weather Stations

Station Location Temp. Windchill Dew Point Humidity Wind Precip. Elev Updated Type
                   

Watches & Warnings

Special Statement
Issued: 7:45 PM CST Feb. 8, 2016 – National Weather Service

... Snow covered and slippery roads expected tonight...

Look for light snow showers through the overnight hours across
northeast... east central and portions of central Wisconsin.
Anywhere from a few tenths of an inch up to an inch is possible
between 8 PM and midnight.

Although snowfall amounts are expected to be light... roads are
expected to be snow covered and slippery. Motorists are urged to
exercise caution when traveling area roads during the overnight
hours.


Kurimski


745 PM CST Mon Feb 8 2016

... Snow covered and slippery roads expected tonight...

Look for light snow showers through the overnight hours across
northeast... east central and portions of central Wisconsin.
Anywhere from a few tenths of an inch up to an inch is possible
between 8 PM and midnight.

Although snowfall amounts are expected to be light... roads are
expected to be snow covered and slippery. Motorists are urged to
exercise caution when traveling area roads during the overnight
hours.


Kurimski